createdAt,value
2023-04-05T00:01:40.059Z,98528.13
2023-04-05T00:04:06.550Z,98533.78
2023-04-05T00:06:32.967Z,98526.22
2023-04-05T00:08:59.262Z,98530.25
2023-04-05T00:11:25.585Z,98526.38
2023-04-05T00:13:51.925Z,98526.16
2023-04-05T00:16:18.311Z,98525.72
2023-04-05T00:18:47.083Z,98525.28
2023-04-05T00:21:13.614Z,98535.44
2023-04-05T00:23:40.078Z,98521.13
2023-04-05T00:26:06.411Z,98519.69
2023-04-05T00:28:32.875Z,98526.38
2023-04-05T00:30:59.643Z,98525.94
2023-04-05T00:33:26.181Z,98525.50
2023-04-05T00:35:52.719Z,98526.69
2023-04-05T00:38:19.500Z,98529.72
2023-04-05T00:40:47.476Z,98529.28
2023-04-05T00:43:14.159Z,98530.47
2023-04-05T00:45:40.808Z,98519.66
2023-04-05T00:48:07.138Z,98517.41
2023-04-05T00:50:33.589Z,98515.16
2023-04-05T00:52:59.952Z,98522.81
2023-04-05T00:55:26.384Z,98514.44
2023-04-05T00:57:52.721Z,98507.72
2023-04-05T01:00:19.223Z,98522.31
2023-04-05T01:02:45.773Z,98515.78
2023-04-05T01:05:12.381Z,98518.78
2023-04-05T01:07:38.761Z,98521.81
2023-04-05T01:10:05.109Z,98517.13
2023-04-05T01:12:31.778Z,98520.94
2023-04-05T01:14:58.168Z,98519.66
2023-04-05T01:17:24.566Z,98512.13
2023-04-05T01:19:50.842Z,98520.44
2023-04-05T01:22:17.148Z,98513.88
2023-04-05T01:24:44.401Z,98515.06
2023-04-05T01:27:12.170Z,98511.81
2023-04-05T01:29:38.610Z,98511.53
2023-04-05T01:32:04.959Z,98512.75
2023-04-05T01:34:32.944Z,98507.84
2023-04-05T01:36:59.284Z,98501.28
2023-04-05T01:39:27.875Z,98505.09
2023-04-05T01:41:54.282Z,98504.66
2023-04-05T01:44:20.756Z,98504.19
2023-04-05T01:46:47.077Z,98508.03
2023-04-05T01:49:13.481Z,98503.28
2023-04-05T01:51:42.154Z,98500.19
2023-04-05T01:54:08.497Z,98496.94
2023-04-05T01:56:34.924Z,98493.03
2023-04-05T01:59:01.317Z,98497.03
2023-04-05T02:01:27.833Z,98507.97
2023-04-05T02:03:54.295Z,98505.72
2023-04-05T02:06:20.965Z,98503.41
2023-04-05T02:08:47.516Z,98501.97
2023-04-05T02:11:16.527Z,98498.88
2023-04-05T02:13:42.949Z,98499.25
2023-04-05T02:16:09.388Z,98498.63
2023-04-05T02:18:35.805Z,98491.88
2023-04-05T02:21:02.191Z,98496.69
2023-04-05T02:23:30.757Z,98493.59
2023-04-05T02:25:57.274Z,98488.72
2023-04-05T02:28:24.804Z,98484.78
2023-04-05T02:30:51.231Z,98480.72
2023-04-05T02:33:17.588Z,98482.72
2023-04-05T02:35:44.021Z,98487.34
2023-04-05T02:38:10.508Z,98477.16
2023-04-05T02:40:37.067Z,98473.25
2023-04-05T02:43:06.574Z,98474.28
2023-04-05T02:45:33.173Z,98475.25
2023-04-05T02:47:59.822Z,98473.81
2023-04-05T02:50:26.256Z,98472.34
2023-04-05T02:52:52.625Z,98476.00
2023-04-05T02:55:18.984Z,98476.31
2023-04-05T02:57:46.778Z,98472.25
2023-04-05T03:00:13.378Z,98473.41
2023-04-05T03:02:40.158Z,98480.53
2023-04-05T03:05:08.568Z,98472.97
2023-04-05T03:07:35.093Z,98474.16
2023-04-05T03:10:01.630Z,98478.78
2023-04-05T03:12:30.112Z,98473.88
2023-04-05T03:14:56.583Z,98482.13
2023-04-05T03:17:23.050Z,98488.41
2023-04-05T03:19:49.452Z,98487.78
2023-04-05T03:22:15.877Z,98487.31
2023-04-05T03:24:42.413Z,98484.03
2023-04-05T03:27:08.795Z,98486.22
2023-04-05T03:29:35.329Z,98481.31
2023-04-05T03:32:03.756Z,98480.66
2023-04-05T03:34:30.155Z,98483.47
2023-04-05T03:36:56.535Z,98481.03
2023-04-05T03:39:22.889Z,98477.75
2023-04-05T03:41:49.692Z,98472.84
2023-04-05T03:44:16.024Z,98473.16
2023-04-05T03:46:42.567Z,98469.94
2023-04-05T03:49:09.135Z,98469.47
2023-04-05T03:51:35.590Z,98462.72
2023-04-05T03:54:02.070Z,98464.72
2023-04-05T03:56:28.492Z,98473.81
2023-04-05T03:58:54.867Z,98468.88
2023-04-05T04:01:21.274Z,98466.41
2023-04-05T04:03:47.852Z,98466.78
2023-04-05T04:06:19.222Z,98461.88
2023-04-05T04:08:46.569Z,98459.53
2023-04-05T04:11:13.043Z,98462.53
2023-04-05T04:13:39.652Z,98455.81
2023-04-05T04:16:05.928Z,98449.91
2023-04-05T04:18:32.442Z,98458.19
2023-04-05T04:20:58.784Z,98454.06
2023-04-05T04:23:26.731Z,98460.50
2023-04-05T04:25:53.200Z,98450.13
2023-04-05T04:28:19.599Z,98451.31
2023-04-05T04:30:46.068Z,98442.97
2023-04-05T04:33:12.484Z,98442.97
2023-04-05T04:35:40.184Z,98448.41
2023-04-05T04:38:06.846Z,98442.50
2023-04-05T04:40:33.202Z,98449.56
2023-04-05T04:42:59.581Z,98456.81
2023-04-05T04:45:26.062Z,98457.00
2023-04-05T04:47:52.622Z,98458.97
2023-04-05T04:50:18.981Z,98460.97
2023-04-05T04:52:45.419Z,98459.50
2023-04-05T04:55:12.004Z,98464.94
2023-04-05T04:57:38.374Z,98465.13
2023-04-05T05:00:04.936Z,98473.81
2023-04-05T05:02:32.588Z,98470.41
2023-04-05T05:04:58.998Z,98467.75
2023-04-05T05:07:25.340Z,98473.47
2023-04-05T05:09:51.797Z,98478.69
2023-04-05T05:12:18.352Z,98470.25
2023-04-05T05:14:48.021Z,98473.38
2023-04-05T05:17:14.801Z,98477.09
2023-04-05T05:19:41.093Z,98473.78
2023-04-05T05:22:07.452Z,98478.34
2023-04-05T05:24:33.773Z,98476.66
2023-04-05T05:27:00.339Z,98479.88
2023-04-05T05:29:26.756Z,98482.44
2023-04-05T05:31:53.934Z,98487.63
2023-04-05T05:34:20.297Z,98490.81
2023-04-05T05:36:46.840Z,98490.72
2023-04-05T05:39:13.395Z,98489.50
2023-04-05T05:41:39.828Z,98481.06
2023-04-05T05:44:06.188Z,98484.69
2023-04-05T05:46:32.874Z,98477.66
2023-04-05T05:48:59.268Z,98485.16
2023-04-05T05:51:25.597Z,98477.19
2023-04-05T05:53:51.977Z,98482.81
2023-04-05T05:56:18.236Z,98481.09
2023-04-05T05:58:44.602Z,98474.50
2023-04-05T06:01:10.966Z,98479.06
2023-04-05T06:03:37.492Z,98482.97
2023-04-05T06:06:04.034Z,98483.03
2023-04-05T06:08:30.361Z,98487.94
2023-04-05T06:10:56.882Z,98474.72
2023-04-05T06:13:25.369Z,98479.81
2023-04-05T06:15:51.673Z,98485.91
2023-04-05T06:18:17.941Z,98480.81
2023-04-05T06:20:44.200Z,98476.75
2023-04-05T06:23:10.395Z,98469.81
2023-04-05T06:25:36.815Z,98469.00
2023-04-05T06:28:03.041Z,98468.81
2023-04-05T06:30:29.251Z,98469.03
2023-04-05T06:32:55.793Z,98464.78
2023-04-05T06:35:22.460Z,98474.34
2023-04-05T06:37:48.766Z,98468.63
2023-04-05T06:40:15.094Z,98465.19
2023-04-05T06:42:41.387Z,98466.00
2023-04-05T06:45:07.611Z,98457.41
2023-04-05T06:47:33.881Z,98457.81
2023-04-05T06:50:00.328Z,98459.59
2023-04-05T06:52:27.247Z,98454.78
2023-04-05T06:54:53.682Z,98459.56
2023-04-05T06:57:20.048Z,98451.28
2023-04-05T06:59:48.455Z,98449.13
2023-04-05T07:02:18.642Z,98452.25
2023-04-05T07:04:51.482Z,98449.63
2023-04-05T07:07:18.020Z,98445.41
2023-04-05T07:09:51.842Z,98440.34
2023-04-05T07:12:21.439Z,98436.66
2023-04-05T07:14:49.111Z,98438.50
2023-04-05T07:17:15.625Z,98444.25
2023-04-05T07:19:42.076Z,98434.47
2023-04-05T07:22:08.540Z,98440.56
2023-04-05T07:24:37.576Z,98434.63
2023-04-05T07:27:11.335Z,98437.84
2023-04-05T07:29:40.793Z,98431.41
2023-04-05T07:32:11.629Z,98436.06
2023-04-05T07:34:38.582Z,98432.47
2023-04-05T07:37:06.942Z,98440.06
2023-04-05T07:39:33.578Z,98442.06
2023-04-05T07:42:00.053Z,98435.44
2023-04-05T07:44:26.560Z,98442.16
2023-04-05T07:46:52.989Z,98431.91
2023-04-05T07:49:19.468Z,98443.06
2023-04-05T07:51:45.888Z,98446.13
2023-04-05T07:54:13.616Z,98438.38
2023-04-05T07:56:40.043Z,98445.63
2023-04-05T07:59:06.590Z,98444.03
2023-04-05T08:01:33.013Z,98447.56
2023-04-05T08:03:59.493Z,98444.91
2023-04-05T08:06:26.005Z,98447.91
2023-04-05T08:08:52.601Z,98450.09
2023-04-05T08:11:21.532Z,98446.41
2023-04-05T08:13:47.874Z,98448.06
2023-04-05T08:16:15.602Z,98444.34
2023-04-05T08:18:42.143Z,98440.25
2023-04-05T08:21:08.453Z,98430.06
2023-04-05T08:23:35.083Z,98431.00
2023-04-05T08:26:01.616Z,98431.69
2023-04-05T08:28:31.482Z,98427.31
2023-04-05T08:30:57.992Z,98424.56
2023-04-05T08:33:24.518Z,98425.50
2023-04-05T08:35:51.105Z,98431.78
2023-04-05T08:38:17.427Z,98430.25
2023-04-05T08:40:43.920Z,98426.53
2023-04-05T08:43:10.310Z,98424.44
2023-04-05T08:45:36.592Z,98415.31
2023-04-05T08:48:03.452Z,98416.69
2023-04-05T08:50:30.193Z,98424.22
2023-04-05T08:52:56.521Z,98422.06
2023-04-05T08:55:22.904Z,98415.31
2023-04-05T08:57:49.879Z,98409.63
2023-04-05T09:00:16.451Z,98403.97
2023-04-05T09:02:43.164Z,98398.50
2023-04-05T09:05:10.697Z,98397.84
2023-04-05T09:07:37.307Z,98403.69
2023-04-05T09:10:03.741Z,98405.56
2023-04-05T09:12:30.101Z,98394.78
2023-04-05T09:14:59.055Z,98406.47
2023-04-05T09:17:25.494Z,98402.03
2023-04-05T09:19:52.000Z,98394.50
2023-04-05T09:22:18.442Z,98400.53
2023-04-05T09:24:44.957Z,98399.97
2023-04-05T09:27:11.538Z,98405.94
2023-04-05T09:29:38.042Z,98398.81
2023-04-05T09:32:04.658Z,98400.91
2023-04-05T09:34:31.110Z,98396.06
2023-04-05T09:36:57.628Z,98394.41
2023-04-05T09:39:24.101Z,98394.28
2023-04-05T09:41:51.881Z,98388.69
2023-04-05T09:44:18.434Z,98390.00
2023-04-05T09:46:46.188Z,98386.25
2023-04-05T09:49:12.812Z,98388.94
2023-04-05T09:51:39.393Z,98395.22
2023-04-05T09:54:05.821Z,98382.78
2023-04-05T09:56:35.170Z,98394.78
2023-04-05T09:59:01.941Z,98396.75
2023-04-05T10:01:32.622Z,98390.38
2023-04-05T10:03:59.180Z,98393.06
2023-04-05T10:06:25.739Z,98388.72
2023-04-05T10:08:52.262Z,98389.28
2023-04-05T10:11:18.978Z,98383.28
2023-04-05T10:13:45.982Z,98385.31
2023-04-05T10:16:15.539Z,98385.06
2023-04-05T10:18:42.169Z,98379.88
2023-04-05T10:21:08.593Z,98373.34
2023-04-05T10:23:35.143Z,98371.59
2023-04-05T10:26:01.681Z,98381.06
2023-04-05T10:28:30.360Z,98365.59
2023-04-05T10:30:57.869Z,98365.59
2023-04-05T10:33:25.633Z,98369.91
2023-04-05T10:35:53.573Z,98366.25
2023-04-05T10:38:20.194Z,98369.97
2023-04-05T10:40:46.719Z,98364.06
2023-04-05T10:43:19.092Z,98365.75
2023-04-05T10:45:45.660Z,98359.13
2023-04-05T10:48:12.380Z,98355.38
2023-04-05T10:50:38.858Z,98364.25
2023-04-05T10:53:05.618Z,98359.50
2023-04-05T10:55:32.351Z,98357.78
2023-04-05T10:58:02.226Z,98351.06
2023-04-05T11:00:35.091Z,98351.94
2023-04-05T11:03:04.905Z,98348.56
2023-04-05T11:05:31.523Z,98357.41
2023-04-05T11:07:58.343Z,98338.69
2023-04-05T11:10:25.232Z,98343.69
2023-04-05T11:12:51.702Z,98341.03
2023-04-05T11:15:18.239Z,98343.69
2023-04-05T11:17:45.476Z,98335.91
2023-04-05T11:20:12.084Z,98334.28
2023-04-05T11:22:38.632Z,98332.66
2023-04-05T11:25:05.096Z,98328.13
2023-04-05T11:27:32.932Z,98317.41
2023-04-05T11:29:59.374Z,98315.88
2023-04-05T11:32:27.730Z,98319.13
2023-04-05T11:34:56.326Z,98314.47
2023-04-05T11:37:22.856Z,98315.41
2023-04-05T11:39:49.495Z,98316.34
2023-04-05T11:42:15.960Z,98317.91
2023-04-05T11:44:42.378Z,98313.28
2023-04-05T11:47:08.725Z,98312.13
2023-04-05T11:49:35.179Z,98308.09
2023-04-05T11:52:04.717Z,98302.66
2023-04-05T11:54:31.450Z,98300.22
2023-04-05T11:56:57.847Z,98294.06
2023-04-05T11:59:24.160Z,98294.81
2023-04-05T12:01:50.661Z,98304.34
2023-04-05T12:04:16.902Z,98298.75
2023-04-05T12:06:43.354Z,98297.47
2023-04-05T12:09:09.692Z,98292.25
2023-04-05T12:11:37.279Z,98290.06
2023-04-05T12:14:03.566Z,98287.88
2023-04-05T12:16:30.086Z,98292.66
2023-04-05T12:18:56.482Z,98291.25
2023-04-05T12:21:22.797Z,98287.22
2023-04-05T12:23:49.090Z,98290.16
2023-04-05T12:26:15.415Z,98287.72
2023-04-05T12:28:41.915Z,98283.63
2023-04-05T12:31:08.134Z,98281.19
2023-04-05T12:33:34.548Z,98284.34
2023-04-05T12:36:00.821Z,98278.44
2023-04-05T12:38:27.250Z,98271.69
2023-04-05T12:40:55.518Z,98268.69
2023-04-05T12:43:22.058Z,98269.19
2023-04-05T12:45:48.342Z,98265.09
2023-04-05T12:48:15.102Z,98265.59
2023-04-05T12:50:41.490Z,98267.69
2023-04-05T12:53:07.892Z,98272.47
2023-04-05T12:55:34.224Z,98263.31
2023-04-05T12:58:02.740Z,98267.25
2023-04-05T13:00:29.038Z,98263.00
2023-04-05T13:02:55.845Z,98253.59
2023-04-05T13:05:22.259Z,98254.06
2023-04-05T13:07:48.534Z,98253.72
2023-04-05T13:10:15.224Z,98250.47
2023-04-05T13:12:41.725Z,98245.63
2023-04-05T13:15:08.189Z,98244.56
2023-04-05T13:17:34.918Z,98242.72
2023-04-05T13:20:01.595Z,98246.41
2023-04-05T13:22:30.335Z,98236.56
2023-04-05T13:24:56.722Z,98239.22
2023-04-05T13:27:23.042Z,98236.78
2023-04-05T13:29:50.750Z,98228.22
2023-04-05T13:32:17.235Z,98231.38
2023-04-05T13:34:43.732Z,98229.19
2023-04-05T13:37:10.079Z,98228.34
2023-04-05T13:39:36.426Z,98223.25
2023-04-05T13:42:02.639Z,98218.94
2023-04-05T13:44:28.860Z,98221.88
2023-04-05T13:46:55.070Z,98216.75
2023-04-05T13:49:21.346Z,98210.84
2023-04-05T13:51:47.945Z,98207.59
2023-04-05T13:54:14.284Z,98198.00
2023-04-05T13:56:40.514Z,98193.72
2023-04-05T13:59:06.821Z,98200.06
2023-04-05T14:01:33.208Z,98199.50
2023-04-05T14:03:59.510Z,98196.84
2023-04-05T14:06:25.786Z,98187.47
2023-04-05T14:08:52.114Z,98189.31
2023-04-05T14:11:18.373Z,98184.22
2023-04-05T14:13:44.623Z,98181.78
2023-04-05T14:16:10.907Z,98185.47
2023-04-05T14:18:37.185Z,98183.88
2023-04-05T14:21:03.421Z,98174.47
2023-04-05T14:23:29.609Z,98167.53
2023-04-05T14:25:55.989Z,98169.63
2023-04-05T14:28:22.173Z,98167.19
2023-04-05T14:30:48.364Z,98173.81
2023-04-05T14:33:14.799Z,98171.34
2023-04-05T14:35:41.339Z,98173.22
2023-04-05T14:38:07.826Z,98173.44
2023-04-05T14:40:34.183Z,98167.53
2023-04-05T14:43:00.566Z,98166.16
2023-04-05T14:45:26.828Z,98162.91
2023-04-05T14:47:53.177Z,98160.22
2023-04-05T14:50:20.093Z,98163.16
2023-04-05T14:52:46.380Z,98158.88
2023-04-05T14:55:13.297Z,98156.56
2023-04-05T14:57:39.493Z,98155.09
2023-04-05T15:00:06.369Z,98151.84
2023-04-05T15:02:32.944Z,98157.97
2023-04-05T15:04:59.239Z,98149.16
2023-04-05T15:07:25.481Z,98144.63
2023-04-05T15:09:51.682Z,98149.97
2023-04-05T15:12:18.275Z,98145.69
2023-04-05T15:14:44.529Z,98138.75
2023-04-05T15:17:10.817Z,98142.44
2023-04-05T15:19:37.462Z,98138.16
2023-04-05T15:22:04.251Z,98134.91
2023-04-05T15:24:31.885Z,98130.59
2023-04-05T15:26:58.102Z,98130.06
2023-04-05T15:29:24.399Z,98129.25
2023-04-05T15:31:50.653Z,98132.16
2023-04-05T15:34:16.864Z,98129.72
2023-04-05T15:36:43.056Z,98123.72
2023-04-05T15:39:09.358Z,98131.81
2023-04-05T15:41:35.590Z,98127.50
2023-04-05T15:44:02.465Z,98129.59
2023-04-05T15:46:29.051Z,98134.13
2023-04-05T15:48:56.960Z,98134.38
2023-04-05T15:51:23.536Z,98131.91
2023-04-05T15:53:50.940Z,98136.22
2023-04-05T15:56:17.413Z,98133.56
2023-04-05T15:58:45.673Z,98131.72
2023-04-05T16:01:12.360Z,98127.97
2023-04-05T16:03:38.777Z,98124.25
2023-04-05T16:06:05.117Z,98129.59
2023-04-05T16:08:31.383Z,98125.06
2023-04-05T16:10:57.746Z,98126.72
2023-04-05T16:13:24.009Z,98133.66
2023-04-05T16:15:50.232Z,98126.22
2023-04-05T16:18:16.706Z,98140.16
2023-04-05T16:20:42.998Z,98133.50
2023-04-05T16:23:09.238Z,98123.44
2023-04-05T16:25:35.471Z,98124.81
2023-04-05T16:28:01.883Z,98122.75
2023-04-05T16:30:28.165Z,98124.09
2023-04-05T16:32:54.743Z,98126.28
2023-04-05T16:35:21.576Z,98112.72
2023-04-05T16:37:47.776Z,98113.06
2023-04-05T16:40:14.063Z,98106.94
2023-04-05T16:42:40.302Z,98118.50
2023-04-05T16:45:06.797Z,98113.72
2023-04-05T16:47:33.073Z,98112.94
2023-04-05T16:49:59.518Z,98109.22
2023-04-05T16:52:25.805Z,98111.88
2023-04-05T16:54:52.111Z,98110.03
2023-04-05T16:57:18.469Z,98106.53
2023-04-05T16:59:45.121Z,98115.38
2023-04-05T17:02:11.716Z,98116.19
2023-04-05T17:04:40.798Z,98114.53
2023-04-05T17:07:07.328Z,98111.88
2023-04-05T17:09:34.106Z,98103.88
2023-04-05T17:12:00.407Z,98105.72
2023-04-05T17:14:26.691Z,98108.63
2023-04-05T17:16:53.404Z,98103.28
2023-04-05T17:19:19.617Z,98100.63
2023-04-05T17:21:45.904Z,98104.59
2023-04-05T17:24:12.196Z,98103.78
2023-04-05T17:26:38.466Z,98104.84
2023-04-05T17:29:05.069Z,98109.34
2023-04-05T17:31:31.611Z,98112.25
2023-04-05T17:33:57.969Z,98109.59
2023-04-05T17:36:25.599Z,98102.63
2023-04-05T17:38:55.239Z,98102.88
2023-04-05T17:41:21.601Z,98107.38
2023-04-05T17:43:47.951Z,98100.44
2023-04-05T17:46:14.364Z,98099.88
2023-04-05T17:48:40.807Z,98107.06
2023-04-05T17:51:10.990Z,98104.63
2023-04-05T17:53:37.544Z,98101.41
2023-04-05T17:56:06.368Z,98112.06
2023-04-05T17:58:32.686Z,98100.84
2023-04-05T18:00:59.030Z,98096.91
2023-04-05T18:03:25.545Z,98115.44
2023-04-05T18:05:52.081Z,98109.28
2023-04-05T18:08:18.711Z,98107.66
2023-04-05T18:10:45.119Z,98112.19
2023-04-05T18:13:11.516Z,98116.72
2023-04-05T18:15:40.978Z,98121.00
2023-04-05T18:18:07.352Z,98123.66
2023-04-05T18:20:33.683Z,98124.25
2023-04-05T18:22:59.961Z,98126.91
2023-04-05T18:25:26.361Z,98116.84
2023-04-05T18:27:53.053Z,98121.09
2023-04-05T18:30:19.348Z,98124.59
2023-04-05T18:32:45.759Z,98126.19
2023-04-05T18:35:12.255Z,98110.56
2023-04-05T18:37:38.666Z,98123.28
2023-04-05T18:40:05.168Z,98125.97
2023-04-05T18:42:31.504Z,98125.97
2023-04-05T18:44:57.863Z,98131.28
2023-04-05T18:47:24.361Z,98130.50
2023-04-05T18:49:52.041Z,98129.44
2023-04-05T18:52:18.425Z,98131.28
2023-04-05T18:54:44.837Z,98137.44
2023-04-05T18:57:11.336Z,98141.97
2023-04-05T18:59:37.750Z,98140.34
2023-04-05T19:02:04.203Z,98144.88
2023-04-05T19:04:30.569Z,98142.09
2023-04-05T19:06:56.895Z,98147.78
2023-04-05T19:09:24.322Z,98144.53
2023-04-05T19:11:50.669Z,98145.59
2023-04-05T19:14:17.042Z,98151.16
2023-04-05T19:16:43.328Z,98154.06
2023-04-05T19:19:09.809Z,98155.34
2023-04-05T19:21:36.908Z,98148.38
2023-04-05T19:24:03.193Z,98148.84
2023-04-05T19:26:29.548Z,98149.91
2023-04-05T19:28:55.957Z,98152.22
2023-04-05T19:31:22.425Z,98150.91
2023-04-05T19:33:48.886Z,98152.81
2023-04-05T19:36:15.248Z,98144.81
2023-04-05T19:38:41.550Z,98148.50
2023-04-05T19:41:07.903Z,98144.81
2023-04-05T19:43:34.386Z,98147.47
2023-04-05T19:46:00.933Z,98145.59
2023-04-05T19:48:27.336Z,98147.22
2023-04-05T19:50:56.611Z,98144.56
2023-04-05T19:53:23.403Z,98148.03
2023-04-05T19:55:49.934Z,98147.22
2023-04-05T19:58:16.294Z,98145.38
2023-04-05T20:00:42.593Z,98147.22
2023-04-05T20:03:09.085Z,98145.59
2023-04-05T20:05:35.520Z,98149.31
2023-04-05T20:08:01.958Z,98149.56
2023-04-05T20:10:28.446Z,98148.16
2023-04-05T20:12:55.750Z,98150.22
2023-04-05T20:15:22.072Z,98147.03
2023-04-05T20:17:48.555Z,98149.09
2023-04-05T20:20:15.003Z,98145.03
2023-04-05T20:22:41.508Z,98143.44
2023-04-05T20:25:08.085Z,98147.59
2023-04-05T20:27:34.537Z,98139.25
2023-04-05T20:30:00.875Z,98139.50
2023-04-05T20:32:27.334Z,98135.22
2023-04-05T20:34:53.780Z,98130.91
2023-04-05T20:37:20.201Z,98132.56
2023-04-05T20:39:47.005Z,98125.59
2023-04-05T20:42:14.250Z,98129.88
2023-04-05T20:44:40.753Z,98122.91
2023-04-05T20:47:06.998Z,98127.44
2023-04-05T20:49:33.309Z,98129.31
2023-04-05T20:51:59.965Z,98120.72
2023-04-05T20:54:26.356Z,98130.34
2023-04-05T20:56:52.628Z,98127.66
2023-04-05T20:59:18.928Z,98126.63
2023-04-05T21:01:45.558Z,98124.75
2023-04-05T21:04:11.844Z,98130.09
2023-04-05T21:06:38.287Z,98126.41
2023-04-05T21:09:04.768Z,98121.31
2023-04-05T21:11:31.073Z,98117.81
2023-04-05T21:13:57.462Z,98121.53
2023-04-05T21:16:23.880Z,98121.53
2023-04-05T21:18:50.362Z,98118.31
2023-04-05T21:21:16.827Z,98117.47
2023-04-05T21:23:43.156Z,98126.53
2023-04-05T21:26:11.451Z,98125.72
2023-04-05T21:28:37.999Z,98122.47
2023-04-05T21:31:04.533Z,98121.88
2023-04-05T21:33:30.999Z,98125.59
2023-04-05T21:35:57.528Z,98122.59
2023-04-05T21:38:24.127Z,98124.69
2023-04-05T21:40:50.604Z,98117.75
2023-04-05T21:43:17.033Z,98117.94
2023-04-05T21:45:43.397Z,98121.66
2023-04-05T21:48:11.038Z,98120.22
2023-04-05T21:50:37.841Z,98114.34
2023-04-05T21:53:04.228Z,98116.44
2023-04-05T21:55:30.625Z,98113.19
2023-04-05T21:57:57.003Z,98108.88
2023-04-05T22:00:24.521Z,98116.31
2023-04-05T22:02:51.304Z,98115.50
2023-04-05T22:05:26.116Z,98111.44
2023-04-05T22:08:00.892Z,98113.50
2023-04-05T22:10:27.774Z,98116.19
2023-04-05T22:12:54.139Z,98112.97
2023-04-05T22:15:20.478Z,98108.66
2023-04-05T22:17:47.920Z,98113.88
2023-04-05T22:20:15.157Z,98106.47
2023-04-05T22:22:41.552Z,98107.94
2023-04-05T22:25:08.024Z,98105.13
2023-04-05T22:27:34.426Z,98101.88
2023-04-05T22:30:00.725Z,98098.38
2023-04-05T22:32:29.911Z,98101.75
2023-04-05T22:34:56.218Z,98103.34
2023-04-05T22:40:06.853Z,98103.00
2023-04-05T22:42:35.400Z,98105.16
2023-04-05T22:45:04.307Z,98111.03
2023-04-05T22:47:30.751Z,98108.66
2023-04-05T22:49:57.364Z,98110.00
2023-04-05T22:52:23.732Z,98113.75
2023-04-05T22:54:50.106Z,98113.22
2023-04-05T22:57:16.528Z,98107.19
2023-04-05T22:59:43.141Z,98109.09
2023-04-05T23:02:11.636Z,98107.28
2023-04-05T23:04:42.179Z,98103.88
2023-04-05T23:07:09.931Z,98104.75
2023-04-05T23:09:38.645Z,98105.38
2023-04-05T23:12:05.062Z,98103.63
2023-04-05T23:14:33.332Z,98092.25
2023-04-05T23:16:59.692Z,98094.75
2023-04-05T23:19:26.043Z,98098.47
2023-04-05T23:21:55.314Z,98095.66
2023-04-05T23:24:21.634Z,98094.91
2023-04-05T23:26:51.891Z,98090.25
2023-04-05T23:29:18.444Z,98089.06
2023-04-05T23:31:44.954Z,98090.72
2023-04-05T23:34:11.716Z,98087.91
2023-04-05T23:36:38.028Z,98086.09
2023-04-05T23:39:04.498Z,98077.19
2023-04-05T23:41:31.496Z,98075.16
2023-04-05T23:43:57.953Z,98075.00
2023-04-05T23:46:24.342Z,98074.00
2023-04-05T23:48:50.767Z,98065.91
2023-04-05T23:51:17.290Z,98062.84
2023-04-05T23:53:43.786Z,98066.94
2023-04-05T23:56:10.154Z,98068.38
2023-04-05T23:58:39.250Z,98061.06
